Huvudsida
METAR-TAF:

METAR-TAF

Flygplatser :

Utti Airport

Uttis, Finland

latitud: 60-54N, longitud: 026-56E, höjd: 100 m

Aktuellt väderrapport

Denna rapport gjordes för 35 minuter sedan, klockan 18:20 UTC
Vind 12 kt från ost
Temperatur 4°C
Fuktighet 93%
Tryck 986 hPa
Sikt: 9000 m
Mulet på en höjd av 600 ft
lätta regnskurar

METAR: EFUT 231820Z AUTO 08012KT 9000 -SHRA OVC006 04/03 Q0986

Tid: 21:55 (18:55 UTC)

Väderprognos

Denna rapport gjordes för 7 timmar och 22 minuter sedan, klockan 11:33 UTC
Prognos gäller från 23 kl. 12 UTC till 23 kl. 16 UTC
Vind 7 kt från ost/sydost
Sikt 10 km eller mer
Brutna moln på en höjd av 2000 ft
Temporärt
från 23 kl. 12 UTC till 23 kl. 16 UTC
Sikt: 6000 m
Brutna moln på en höjd av 1000 ft
Spridda moln på en höjd av 2000 ft, Cumulonimbus.
regnskurar

TAF: EFUT 231133Z 2312/2316 11007KT 9999 BKN020 TEMPO 2312/2316 6000 SHRA BKN010 SCT020CB

Aktuella väderrapporter och prognoser från 4000 flygplatser (METAR- och TAF-rapporter).

De tillgängliga stationerna syns som gula och röda prickar på kartan.

För musen över prickarna för att se namnen på stationerna.

Klicka sedan för att få väderrapporter och prognoser.

För att ändra kartan: Klicka på de gröna knapparna med ett svart kors på för att zooma in; den gröna knappen med ett streck på för att zooma ut; eller på de gröna pilarna för angränsande kartor.


METAR-TAF: